Silver Shadow — C6FN6 — position and weather

sailwx.info

Track history (hours):
 
Tides and Currents Weather Stations Pressure Air Temp Water Temp Dewpoint Dewpoint Depression Visibility Wind Speed Wind Dir Waves Ship Positions

Silver Shadow

Operator: V Ships Leisure SAM

Last reported at 2014-Dec-07 08:32 UTC. Time now 2014-Dec-20 11:34 UTC.
Position S 34°59' W 055°03'.
Warning: this ship's position is 13 days out of date.

Length 186 m; draft 6.1 m.

Type: Passenger vessel. MMSI: 308628000.

Date/timePositionNaut miles runAvg speedWind from/ knotsBaromVisibWave heightAir tempDewpointWater temp
2014-Dec-07 08:32S 34°59' W 055°03'8 8.2
2014-Dec-07 07:32S 35°01' W 055°13'8 8.5
2014-Dec-07 06:33S 35°02' W 055°23'9 8.6
2014-Dec-07 05:33S 35°02' W 055°34'9 8.8
2014-Dec-07 04:33S 35°02' W 055°45'9 8.9
2014-Dec-07 03:33S 35°01' W 055°55'9 8.8
2014-Dec-07 02:33S 35°01' W 056°06'7 7.3
2014-Dec-07 01:32S 34°56' W 056°13'2 0.4
2014-Dec-06 20:32S 34°54' W 056°13'0 0.0
2014-Dec-06 09:33S 34°54' W 056°13'6 6.5
2014-Dec-06 08:33S 35°01' W 056°12'9 9.1
2014-Dec-06 07:32S 35°10' W 056°14'1414.6
2014-Dec-06 06:34S 35°10' W 056°31'1313.2
2014-Dec-06 05:33S 35°10' W 056°48'1312.5
2014-Dec-06 04:33S 35°08' W 057°03'1111.2
2014-Dec-06 03:33S 34°60' W 057°12'1313.1
2014-Dec-06 02:34S 34°51' W 057°23'1313.4
2014-Dec-06 01:33S 34°45' W 057°38'1211.9
2014-Dec-06 00:33S 34°43' W 057°52'1313.0
2014-Dec-05 23:33S 34°38' W 058°07'1211.9
2014-Dec-05 22:33S 34°36' W 058°21'1 0.8
2014-Dec-05 21:32S 34°35' W 058°22'0 0.0
2014-Dec-05 20:32S 34°35' W 058°22'0 0.0
2014-Dec-05 19:32S 34°35' W 058°22'0 0.0
2014-Dec-05 18:32S 34°35' W 058°22'0 0.0
2014-Dec-05 17:32S 34°35' W 058°22'0 0.0
2014-Dec-05 16:32S 34°35' W 058°22'0 0.0
2014-Dec-05 15:32S 34°35' W 058°22'0 0.0
2014-Dec-05 14:32S 34°35' W 058°22'0 0.0
2014-Dec-05 13:29S 34°35' W 058°22'0 0.0
2014-Dec-05 12:32S 34°35' W 058°22'0 0.0
2014-Dec-05 11:29S 34°35' W 058°22'0 0.0
2014-Dec-05 10:33S 34°35' W 058°22'4 4.2
2014-Dec-05 09:33S 34°36' W 058°17'1211.7
2014-Dec-05 08:33S 34°39' W 058°03'1111.5
2014-Dec-05 07:33S 34°45' W 057°51'10 9.5
2014-Dec-05 06:33S 34°45' W 057°39'1210.0
2014-Dec-05 05:21S 34°49' W 057°26'7 9.1
2014-Dec-05 04:33S 34°54' W 057°19'9 8.7
2014-Dec-05 03:33S 35°00' W 057°12'9 8.6
2014-Dec-05 02:33S 35°07' W 057°05'  
Track history (hours):
 
Tides and Currents Weather Stations Pressure Air Temp Water Temp Dewpoint Dewpoint Depression Visibility Wind Speed Wind Dir Waves Ship Positions

Silver Shadow

Operator: V Ships Leisure SAM

Last reported at 2014-Dec-07 08:32 UTC. Time now 2014-Dec-20 11:34 UTC.
Position S 34°59' W 055°03'.
Warning: this ship's position is 13 days out of date.

Length 186 m; draft 6.1 m.

Type: Passenger vessel. MMSI: 308628000.

Date/timePositionNaut miles runAvg speedWind from/ knotsBaromVisibWave heightAir tempDewpointWater temp
2014-Dec-07 08:32S 34°59' W 055°03'8 8.2
2014-Dec-07 07:32S 35°01' W 055°13'8 8.5
2014-Dec-07 06:33S 35°02' W 055°23'9 8.6
2014-Dec-07 05:33S 35°02' W 055°34'9 8.8
2014-Dec-07 04:33S 35°02' W 055°45'9 8.9
2014-Dec-07 03:33S 35°01' W 055°55'9 8.8
2014-Dec-07 02:33S 35°01' W 056°06'7 7.3
2014-Dec-07 01:32S 34°56' W 056°13'2 0.4
2014-Dec-06 20:32S 34°54' W 056°13'0 0.0
2014-Dec-06 09:33S 34°54' W 056°13'6 6.5
2014-Dec-06 08:33S 35°01' W 056°12'9 9.1
2014-Dec-06 07:32S 35°10' W 056°14'1414.6
2014-Dec-06 06:34S 35°10' W 056°31'1313.2
2014-Dec-06 05:33S 35°10' W 056°48'1312.5
2014-Dec-06 04:33S 35°08' W 057°03'1111.2
2014-Dec-06 03:33S 34°60' W 057°12'1313.1
2014-Dec-06 02:34S 34°51' W 057°23'1313.4
2014-Dec-06 01:33S 34°45' W 057°38'1211.9
2014-Dec-06 00:33S 34°43' W 057°52'1313.0
2014-Dec-05 23:33S 34°38' W 058°07'1211.9
2014-Dec-05 22:33S 34°36' W 058°21'1 0.8
2014-Dec-05 21:32S 34°35' W 058°22'0 0.0
2014-Dec-05 20:32S 34°35' W 058°22'0 0.0
2014-Dec-05 19:32S 34°35' W 058°22'0 0.0
2014-Dec-05 18:32S 34°35' W 058°22'0 0.0
2014-Dec-05 17:32S 34°35' W 058°22'0 0.0
2014-Dec-05 16:32S 34°35' W 058°22'0 0.0
2014-Dec-05 15:32S 34°35' W 058°22'0 0.0
2014-Dec-05 14:32S 34°35' W 058°22'0 0.0
2014-Dec-05 13:29S 34°35' W 058°22'0 0.0
2014-Dec-05 12:32S 34°35' W 058°22'0 0.0
2014-Dec-05 11:29S 34°35' W 058°22'0 0.0
2014-Dec-05 10:33S 34°35' W 058°22'4 4.2
2014-Dec-05 09:33S 34°36' W 058°17'1211.7
2014-Dec-05 08:33S 34°39' W 058°03'1111.5
2014-Dec-05 07:33S 34°45' W 057°51'10 9.5
2014-Dec-05 06:33S 34°45' W 057°39'1210.0
2014-Dec-05 05:21S 34°49' W 057°26'7 9.1
2014-Dec-05 04:33S 34°54' W 057°19'9 8.7
2014-Dec-05 03:33S 35°00' W 057°12'9 8.6
2014-Dec-05 02:33S 35°07' W 057°05'  

Dump ship's entire track history